sensor_id;sensor_type;location;lat;lon;timestamp;pressure;altitude;pressure_sealevel;temperature;humidity
21433;BME280;18592;49.708;10.900;2023-03-19T00:01:52;98318.38;;;13.40;42.13
21433;BME280;18592;49.708;10.900;2023-03-19T00:03:54;98321.38;;;13.38;42.12
21433;BME280;18592;49.708;10.900;2023-03-19T00:05:55;98313.72;;;13.35;42.21
21433;BME280;18592;49.708;10.900;2023-03-19T00:08:06;98323.03;;;13.34;42.10
21433;BME280;18592;49.708;10.900;2023-03-19T00:10:08;98313.16;;;13.33;42.19
21433;BME280;18592;49.708;10.900;2023-03-19T00:12:10;98324.69;;;13.30;42.08
21433;BME280;18592;49.708;10.900;2023-03-19T00:14:12;98317.84;;;13.28;42.06
21433;BME280;18592;49.708;10.900;2023-03-19T00:16:16;98318.09;;;13.26;42.14
21433;BME280;18592;49.708;10.900;2023-03-19T00:18:18;98327.41;;;13.25;42.31
21433;BME280;18592;49.708;10.900;2023-03-19T00:20:20;98318.63;;;13.23;42.20
21433;BME280;18592;49.708;10.900;2023-03-19T00:22:23;98319.22;;;13.20;42.23
21433;BME280;18592;49.708;10.900;2023-03-19T00:24:25;98318.63;;;13.18;42.25
21433;BME280;18592;49.708;10.900;2023-03-19T00:26:27;98318.91;;;13.17;42.28
21433;BME280;18592;49.708;10.900;2023-03-19T00:28:29;98320.28;;;13.14;42.31
21433;BME280;18592;49.708;10.900;2023-03-19T00:30:33;98325.22;;;13.12;42.21
21433;BME280;18592;49.708;10.900;2023-03-19T00:32:35;98324.94;;;13.09;42.20
21433;BME280;18592;49.708;10.900;2023-03-19T00:34:37;98331.22;;;13.09;42.29
21433;BME280;18592;49.708;10.900;2023-03-19T00:36:39;98330.91;;;13.06;42.42
21433;BME280;18592;49.708;10.900;2023-03-19T00:38:41;98331.19;;;13.04;42.38
21433;BME280;18592;49.708;10.900;2023-03-19T00:40:43;98328.16;;;13.01;42.54
21433;BME280;18592;49.708;10.900;2023-03-19T00:42:46;98334.22;;;12.98;42.27
21433;BME280;18592;49.708;10.900;2023-03-19T00:44:47;98333.63;;;12.96;42.50
21433;BME280;18592;49.708;10.900;2023-03-19T00:46:49;98335.56;;;12.95;42.60
21433;BME280;18592;49.708;10.900;2023-03-19T00:48:50;98334.75;;;12.95;42.47
21433;BME280;18592;49.708;10.900;2023-03-19T00:51:01;98337.50;;;12.95;42.63
21433;BME280;18592;49.708;10.900;2023-03-19T00:53:03;98335.00;;;12.93;42.63
21433;BME280;18592;49.708;10.900;2023-03-19T00:55:05;98334.75;;;12.90;42.54
21433;BME280;18592;49.708;10.900;2023-03-19T00:57:08;98330.34;;;12.89;42.66
21433;BME280;18592;49.708;10.900;2023-03-19T00:59:10;98326.25;;;12.86;42.95
21433;BME280;18592;49.708;10.900;2023-03-19T01:01:13;98327.31;;;12.85;42.66
21433;BME280;18592;49.708;10.900;2023-03-19T01:03:16;98317.75;;;12.83;42.61
21433;BME280;18592;49.708;10.900;2023-03-19T01:05:20;98326.25;;;12.81;42.59
21433;BME280;18592;49.708;10.900;2023-03-19T01:07:22;98318.31;;;12.80;42.94
21433;BME280;18592;49.708;10.900;2023-03-19T01:09:23;98315.84;;;12.78;43.04
21433;BME280;18592;49.708;10.900;2023-03-19T01:11:25;98309.81;;;12.76;42.87
21433;BME280;18592;49.708;10.900;2023-03-19T01:13:29;98325.69;;;12.74;43.03
21433;BME280;18592;49.708;10.900;2023-03-19T01:15:37;98326.22;;;12.71;43.08
21433;BME280;18592;49.708;10.900;2023-03-19T01:17:40;98324.56;;;12.70;43.04
21433;BME280;18592;49.708;10.900;2023-03-19T01:19:42;98324.56;;;12.70;42.89
21433;BME280;18592;49.708;10.900;2023-03-19T01:21:44;98327.59;;;12.68;43.04
21433;BME280;18592;49.708;10.900;2023-03-19T01:23:50;98327.88;;;12.67;42.97
21433;BME280;18592;49.708;10.900;2023-03-19T01:25:56;98334.69;;;12.64;43.28
21433;BME280;18592;49.708;10.900;2023-03-19T01:28:00;98331.13;;;12.64;43.06
21433;BME280;18592;49.708;10.900;2023-03-19T01:30:02;98338.78;;;12.62;43.15
21433;BME280;18592;49.708;10.900;2023-03-19T01:32:24;98327.28;;;12.60;43.11
21433;BME280;18592;49.708;10.900;2023-03-19T01:34:47;98337.41;;;12.59;43.08
21433;BME280;18592;49.708;10.900;2023-03-19T01:36:50;98339.31;;;12.59;43.18
21433;BME280;18592;49.708;10.900;2023-03-19T01:38:59;98335.22;;;12.56;43.12
21433;BME280;18592;49.708;10.900;2023-03-19T01:41:05;98340.13;;;12.54;42.83
21433;BME280;18592;49.708;10.900;2023-03-19T01:43:17;98342.28;;;12.52;43.33
21433;BME280;18592;49.708;10.900;2023-03-19T01:45:33;98341.75;;;12.50;43.26
21433;BME280;18592;49.708;10.900;2023-03-19T01:47:55;98337.09;;;12.51;43.31
21433;BME280;18592;49.708;10.900;2023-03-19T01:50:20;98340.13;;;12.49;43.80
21433;BME280;18592;49.708;10.900;2023-03-19T01:52:32;98333.28;;;12.47;43.28
21433;BME280;18592;49.708;10.900;2023-03-19T01:54:52;98338.16;;;12.45;43.14
21433;BME280;18592;49.708;10.900;2023-03-19T01:57:20;98334.88;;;12.43;43.56
21433;BME280;18592;49.708;10.900;2023-03-19T01:59:32;98336.78;;;12.42;43.56
21433;BME280;18592;49.708;10.900;2023-03-19T02:01:45;98329.41;;;12.43;43.51
21433;BME280;18592;49.708;10.900;2023-03-19T02:03:51;98336.78;;;12.42;43.48
21433;BME280;18592;49.708;10.900;2023-03-19T02:06:02;98337.63;;;12.43;43.42
21433;BME280;18592;49.708;10.900;2023-03-19T02:08:05;98336.00;;;12.42;43.52
21433;BME280;18592;49.708;10.900;2023-03-19T02:10:12;98334.88;;;12.43;43.46
21433;BME280;18592;49.708;10.900;2023-03-19T02:12:15;98334.34;;;12.41;43.40
21433;BME280;18592;49.708;10.900;2023-03-19T02:14:18;98334.34;;;12.41;43.45
21433;BME280;18592;49.708;10.900;2023-03-19T02:16:19;98334.34;;;12.41;43.47
21433;BME280;18592;49.708;10.900;2023-03-19T02:18:23;98340.09;;;12.39;43.44
21433;BME280;18592;49.708;10.900;2023-03-19T02:20:33;98335.97;;;12.37;43.64
21433;BME280;18592;49.708;10.900;2023-03-19T02:22:40;98330.50;;;12.37;43.45
21433;BME280;18592;49.708;10.900;2023-03-19T02:25:13;98330.22;;;12.33;43.77
21433;BME280;18592;49.708;10.900;2023-03-19T02:27:22;98340.31;;;12.33;43.43
21433;BME280;18592;49.708;10.900;2023-03-19T02:29:25;98329.38;;;12.33;43.39
21433;BME280;18592;49.708;10.900;2023-03-19T02:31:27;98333.22;;;12.32;43.56
21433;BME280;18592;49.708;10.900;2023-03-19T02:33:31;98327.19;;;12.30;43.39
21433;BME280;18592;49.708;10.900;2023-03-19T02:35:36;98332.09;;;12.28;43.62
21433;BME280;18592;49.708;10.900;2023-03-19T02:37:39;98329.38;;;12.28;43.50
21433;BME280;18592;49.708;10.900;2023-03-19T02:39:43;98331.53;;;12.26;43.58
21433;BME280;18592;49.708;10.900;2023-03-19T02:41:47;98333.72;;;12.24;43.62
21433;BME280;18592;49.708;10.900;2023-03-19T02:43:52;98334.81;;;12.23;43.62
21433;BME280;18592;49.708;10.900;2023-03-19T02:45:54;98344.13;;;12.22;43.79
21433;BME280;18592;49.708;10.900;2023-03-19T02:47:56;98343.28;;;12.21;43.65
21433;BME280;18592;49.708;10.900;2023-03-19T02:49:58;98339.19;;;12.19;43.73
21433;BME280;18592;49.708;10.900;2023-03-19T02:52:01;98345.47;;;12.19;43.71
21433;BME280;18592;49.708;10.900;2023-03-19T02:54:06;98335.91;;;12.17;43.69
21433;BME280;18592;49.708;10.900;2023-03-19T02:56:07;98350.63;;;12.16;43.89
21433;BME280;18592;49.708;10.900;2023-03-19T02:58:09;98351.72;;;12.15;43.72
21433;BME280;18592;49.708;10.900;2023-03-19T03:00:13;98355.00;;;12.12;43.69
21433;BME280;18592;49.708;10.900;2023-03-19T03:02:17;98353.63;;;12.09;43.82
21433;BME280;18592;49.708;10.900;2023-03-19T03:04:21;98353.03;;;12.07;43.69
21433;BME280;18592;49.708;10.900;2023-03-19T03:06:24;98349.75;;;12.05;43.64
21433;BME280;18592;49.708;10.900;2023-03-19T03:08:26;98352.50;;;12.05;43.77
21433;BME280;18592;49.708;10.900;2023-03-19T03:10:29;98352.75;;;12.03;43.77
21433;BME280;18592;49.708;10.900;2023-03-19T03:12:31;98353.28;;;12.00;43.67
21433;BME280;18592;49.708;10.900;2023-03-19T03:14:33;98357.94;;;12.00;43.90
21433;BME280;18592;49.708;10.900;2023-03-19T03:16:35;98359.03;;;11.99;43.65
21433;BME280;18592;49.708;10.900;2023-03-19T03:18:38;98358.44;;;11.97;43.83
21433;BME280;18592;49.708;10.900;2023-03-19T03:20:39;98358.72;;;11.95;43.89
21433;BME280;18592;49.708;10.900;2023-03-19T03:22:41;98357.06;;;11.94;43.85
21433;BME280;18592;49.708;10.900;2023-03-19T03:24:43;98361.97;;;11.92;43.82
21433;BME280;18592;49.708;10.900;2023-03-19T03:26:44;98365.81;;;11.91;43.84
21433;BME280;18592;49.708;10.900;2023-03-19T03:28:48;98368.56;;;11.91;43.88
21433;BME280;18592;49.708;10.900;2023-03-19T03:30:50;98378.88;;;11.89;43.83
21433;BME280;18592;49.708;10.900;2023-03-19T03:32:57;98378.09;;;11.89;43.89
21433;BME280;18592;49.708;10.900;2023-03-19T03:34:59;98381.91;;;11.88;43.84
21433;BME280;18592;49.708;10.900;2023-03-19T03:37:01;98378.63;;;11.86;43.93
21433;BME280;18592;49.708;10.900;2023-03-19T03:39:03;98385.97;;;11.85;44.10
21433;BME280;18592;49.708;10.900;2023-03-19T03:41:08;98386.25;;;11.84;43.83
21433;BME280;18592;49.708;10.900;2023-03-19T03:43:14;98390.06;;;11.83;44.16
21433;BME280;18592;49.708;10.900;2023-03-19T03:45:17;98388.41;;;11.82;43.97
21433;BME280;18592;49.708;10.900;2023-03-19T03:47:19;98395.78;;;11.81;44.16
21433;BME280;18592;49.708;10.900;2023-03-19T03:49:21;98396.88;;;11.80;44.17
21433;BME280;18592;49.708;10.900;2023-03-19T03:51:25;98392.75;;;11.78;44.10
21433;BME280;18592;49.708;10.900;2023-03-19T03:53:27;98394.94;;;11.76;44.29
21433;BME280;18592;49.708;10.900;2023-03-19T03:55:29;98393.28;;;11.75;44.15
21433;BME280;18592;49.708;10.900;2023-03-19T03:57:32;98395.44;;;11.73;44.57
21433;BME280;18592;49.708;10.900;2023-03-19T03:59:36;98396.28;;;11.73;44.57
21433;BME280;18592;49.708;10.900;2023-03-19T04:01:38;98395.44;;;11.73;44.67
21433;BME280;18592;49.708;10.900;2023-03-19T04:03:40;98408.28;;;11.72;44.58
21433;BME280;18592;49.708;10.900;2023-03-19T04:05:43;98393.00;;;11.71;44.52
21433;BME280;18592;49.708;10.900;2023-03-19T04:07:45;98391.34;;;11.70;44.44
21433;BME280;18592;49.708;10.900;2023-03-19T04:09:52;98392.41;;;11.69;44.54
21433;BME280;18592;49.708;10.900;2023-03-19T04:11:54;98392.41;;;11.69;44.52
21433;BME280;18592;49.708;10.900;2023-03-19T04:13:56;98394.34;;;11.69;44.72
21433;BME280;18592;49.708;10.900;2023-03-19T04:15:59;98389.91;;;11.68;44.61
21433;BME280;18592;49.708;10.900;2023-03-19T04:18:01;98401.13;;;11.66;44.68
21433;BME280;18592;49.708;10.900;2023-03-19T04:20:03;98400.28;;;11.66;44.60
21433;BME280;18592;49.708;10.900;2023-03-19T04:22:05;98400.53;;;11.64;44.58
21433;BME280;18592;49.708;10.900;2023-03-19T04:24:08;98398.91;;;11.63;44.54
21433;BME280;18592;49.708;10.900;2023-03-19T04:26:10;98397.25;;;11.62;44.53
21433;BME280;18592;49.708;10.900;2023-03-19T04:28:12;98397.53;;;11.61;44.57
21433;BME280;18592;49.708;10.900;2023-03-19T04:30:15;98400.25;;;11.61;44.76
21433;BME280;18592;49.708;10.900;2023-03-19T04:32:16;98402.16;;;11.60;44.87
21433;BME280;18592;49.708;10.900;2023-03-19T04:34:19;98402.16;;;11.60;44.84
21433;BME280;18592;49.708;10.900;2023-03-19T04:36:21;98399.41;;;11.60;45.03
21433;BME280;18592;49.708;10.900;2023-03-19T04:38:23;98403.22;;;11.59;45.00
21433;BME280;18592;49.708;10.900;2023-03-19T04:40:34;98408.94;;;11.58;44.90
21433;BME280;18592;49.708;10.900;2023-03-19T04:42:36;98408.13;;;11.57;44.79
21433;BME280;18592;49.708;10.900;2023-03-19T04:44:48;98412.75;;;11.57;45.19
21433;BME280;18592;49.708;10.900;2023-03-19T04:46:51;98410.84;;;11.57;44.98
21433;BME280;18592;49.708;10.900;2023-03-19T04:48:54;98414.66;;;11.56;45.25
21433;BME280;18592;49.708;10.900;2023-03-19T04:50:57;98413.59;;;11.57;45.10
21433;BME280;18592;49.708;10.900;2023-03-19T04:52:59;98422.03;;;11.56;45.04
21433;BME280;18592;49.708;10.900;2023-03-19T04:55:04;98422.84;;;11.56;45.24
21433;BME280;18592;49.708;10.900;2023-03-19T04:57:19;98417.66;;;11.55;45.30
21433;BME280;18592;49.708;10.900;2023-03-19T04:59:22;98427.75;;;11.54;45.18
21433;BME280;18592;49.708;10.900;2023-03-19T05:01:24;98422.28;;;11.54;45.48
21433;BME280;18592;49.708;10.900;2023-03-19T05:03:32;98421.72;;;11.52;45.23
21433;BME280;18592;49.708;10.900;2023-03-19T05:05:35;98433.47;;;11.53;45.21
21433;BME280;18592;49.708;10.900;2023-03-19T05:07:40;98428.84;;;11.53;45.38
21433;BME280;18592;49.708;10.900;2023-03-19T05:09:43;98424.75;;;11.51;45.45
21433;BME280;18592;49.708;10.900;2023-03-19T05:11:48;98430.19;;;11.51;45.65
21433;BME280;18592;49.708;10.900;2023-03-19T05:13:53;98427.47;;;11.51;45.72
21433;BME280;18592;49.708;10.900;2023-03-19T05:15:54;98437.56;;;11.50;45.63
21433;BME280;18592;49.708;10.900;2023-03-19T05:17:57;98431.53;;;11.48;45.51
21433;BME280;18592;49.708;10.900;2023-03-19T05:20:09;98447.09;;;11.47;45.38
21433;BME280;18592;49.708;10.900;2023-03-19T05:22:17;98451.44;;;11.48;45.53
21433;BME280;18592;49.708;10.900;2023-03-19T05:24:20;98449.53;;;11.49;45.41
21433;BME280;18592;49.708;10.900;2023-03-19T05:26:22;98455.00;;;11.49;45.61
21433;BME280;18592;49.708;10.900;2023-03-19T05:28:41;98447.91;;;11.48;45.51
21433;BME280;18592;49.708;10.900;2023-03-19T05:30:44;98460.97;;;11.46;45.97
21433;BME280;18592;49.708;10.900;2023-03-19T05:32:58;98451.72;;;11.47;45.61
21433;BME280;18592;49.708;10.900;2023-03-19T05:35:28;98456.34;;;11.46;45.61
21433;BME280;18592;49.708;10.900;2023-03-19T05:37:30;98451.72;;;11.47;45.51
21433;BME280;18592;49.708;10.900;2023-03-19T05:39:33;98451.72;;;11.47;45.83
21433;BME280;18592;49.708;10.900;2023-03-19T05:41:39;98457.19;;;11.47;45.84
21433;BME280;18592;49.708;10.900;2023-03-19T05:43:41;98462.63;;;11.47;45.62
21433;BME280;18592;49.708;10.900;2023-03-19T05:45:57;98491.81;;;11.46;45.90
21433;BME280;18592;49.708;10.900;2023-03-19T05:48:03;98492.38;;;11.48;45.49
21433;BME280;18592;49.708;10.900;2023-03-19T05:50:11;98489.09;;;11.46;45.95
21433;BME280;18592;49.708;10.900;2023-03-19T05:52:21;98498.38;;;11.45;45.96
21433;BME280;18592;49.708;10.900;2023-03-19T05:54:23;98486.38;;;11.46;46.01
21433;BME280;18592;49.708;10.900;2023-03-19T05:57:00;98502.19;;;11.44;46.08
21433;BME280;18592;49.708;10.900;2023-03-19T05:59:07;98500.00;;;11.46;45.94
21433;BME280;18592;49.708;10.900;2023-03-19T06:01:13;98498.13;;;11.47;46.09
21433;BME280;18592;49.708;10.900;2023-03-19T06:03:15;98507.13;;;11.47;46.25
21433;BME280;18592;49.708;10.900;2023-03-19T06:05:22;98508.75;;;11.48;46.45
21433;BME280;18592;49.708;10.900;2023-03-19T06:07:27;98506.88;;;11.49;46.37
21433;BME280;18592;49.708;10.900;2023-03-19T06:09:29;98498.69;;;11.49;46.34
21433;BME280;18592;49.708;10.900;2023-03-19T06:11:30;98512.09;;;11.51;46.63
21433;BME280;18592;49.708;10.900;2023-03-19T06:13:55;98514.53;;;11.52;46.42
21433;BME280;18592;49.708;10.900;2023-03-19T06:15:57;98518.09;;;11.53;46.43
21433;BME280;18592;49.708;10.900;2023-03-19T06:18:04;98519.50;;;11.55;46.54
21433;BME280;18592;49.708;10.900;2023-03-19T06:20:06;98515.66;;;11.56;46.63
21433;BME280;18592;49.708;10.900;2023-03-19T06:22:08;98516.25;;;11.58;46.75
21433;BME280;18592;49.708;10.900;2023-03-19T06:24:10;98513.53;;;11.58;46.55
21433;BME280;18592;49.708;10.900;2023-03-19T06:26:11;98519.53;;;11.60;46.62
21433;BME280;18592;49.708;10.900;2023-03-19T06:28:22;98521.75;;;11.63;46.49
21433;BME280;18592;49.708;10.900;2023-03-19T06:30:23;98521.75;;;11.63;46.57
21433;BME280;18592;49.708;10.900;2023-03-19T06:32:26;98531.34;;;11.66;46.56
21433;BME280;18592;49.708;10.900;2023-03-19T06:34:29;98530.03;;;11.68;46.74
21433;BME280;18592;49.708;10.900;2023-03-19T06:36:31;98530.03;;;11.68;46.88
21433;BME280;18592;49.708;10.900;2023-03-19T06:38:35;98527.59;;;11.72;46.55
21433;BME280;18592;49.708;10.900;2023-03-19T06:40:37;98531.16;;;11.72;46.60
21433;BME280;18592;49.708;10.900;2023-03-19T06:42:38;98534.44;;;11.74;46.74
21433;BME280;18592;49.708;10.900;2023-03-19T06:44:41;98534.44;;;11.74;46.82
21433;BME280;18592;49.708;10.900;2023-03-19T06:46:43;98532.28;;;11.76;46.82
21433;BME280;18592;49.708;10.900;2023-03-19T06:48:45;98539.38;;;11.77;46.95
21433;BME280;18592;49.708;10.900;2023-03-19T06:50:46;98534.47;;;11.79;47.06
21433;BME280;18592;49.708;10.900;2023-03-19T06:52:48;98545.41;;;11.79;46.93
21433;BME280;18592;49.708;10.900;2023-03-19T06:54:50;98535.88;;;11.82;46.85
21433;BME280;18592;49.708;10.900;2023-03-19T06:56:52;98543.81;;;11.83;47.09
21433;BME280;18592;49.708;10.900;2023-03-19T06:58:55;98548.19;;;11.84;47.06
21433;BME280;18592;49.708;10.900;2023-03-19T07:00:56;98549.84;;;11.85;47.07
21433;BME280;18592;49.708;10.900;2023-03-19T07:02:58;98547.44;;;11.89;47.13
21433;BME280;18592;49.708;10.900;2023-03-19T07:05:00;98553.44;;;11.91;47.09
21433;BME280;18592;49.708;10.900;2023-03-19T07:07:11;98556.47;;;11.94;46.60
21433;BME280;18592;49.708;10.900;2023-03-19T07:09:12;98555.66;;;11.94;47.01
21433;BME280;18592;49.708;10.900;2023-03-19T07:11:14;98558.69;;;11.97;46.92
21433;BME280;18592;49.708;10.900;2023-03-19T07:13:16;98571.28;;;11.98;46.95
21433;BME280;18592;49.708;10.900;2023-03-19T07:15:18;98572.09;;;11.99;46.98
21433;BME280;18592;49.708;10.900;2023-03-19T07:17:24;98571.84;;;12.00;47.35
21433;BME280;18592;49.708;10.900;2023-03-19T07:19:25;98586.06;;;12.02;47.20
21433;BME280;18592;49.708;10.900;2023-03-19T07:21:27;98586.06;;;12.02;47.10
21433;BME280;18592;49.708;10.900;2023-03-19T07:23:29;98593.41;;;12.02;47.13
21433;BME280;18592;49.708;10.900;2023-03-19T07:25:33;98588.78;;;12.02;47.51
21433;BME280;18592;49.708;10.900;2023-03-19T07:27:35;98606.56;;;12.05;47.15
21433;BME280;18592;49.708;10.900;2023-03-19T07:29:39;98605.22;;;12.07;47.16
21433;BME280;18592;49.708;10.900;2023-03-19T07:31:43;98604.38;;;12.07;47.36
21433;BME280;18592;49.708;10.900;2023-03-19T07:33:45;98606.88;;;12.08;47.00
21433;BME280;18592;49.708;10.900;2023-03-19T07:35:46;98617.28;;;12.12;47.39
21433;BME280;18592;49.708;10.900;2023-03-19T07:37:48;98611.56;;;12.13;47.51
21433;BME280;18592;49.708;10.900;2023-03-19T07:39:53;98604.75;;;12.16;47.33
21433;BME280;18592;49.708;10.900;2023-03-19T07:41:55;98609.16;;;12.17;47.58
21433;BME280;18592;49.708;10.900;2023-03-19T07:43:57;98613.25;;;12.19;47.34
21433;BME280;18592;49.708;10.900;2023-03-19T07:45:59;98616.03;;;12.24;47.41
21433;BME280;18592;49.708;10.900;2023-03-19T07:48:01;98610.31;;;12.26;47.49
21433;BME280;18592;49.708;10.900;2023-03-19T07:50:07;98618.53;;;12.31;47.42
21433;BME280;18592;49.708;10.900;2023-03-19T07:52:09;98622.66;;;12.33;47.39
21433;BME280;18592;49.708;10.900;2023-03-19T07:54:11;98615.59;;;12.37;47.56
21433;BME280;18592;49.708;10.900;2023-03-19T07:56:15;98614.81;;;12.42;47.44
21433;BME280;18592;49.708;10.900;2023-03-19T07:58:20;98617.00;;;12.45;47.38
21433;BME280;18592;49.708;10.900;2023-03-19T08:00:21;98611.84;;;12.48;47.33
21433;BME280;18592;49.708;10.900;2023-03-19T08:02:23;98617.63;;;12.52;47.47
21433;BME280;18592;49.708;10.900;2023-03-19T08:04:24;98618.75;;;12.56;47.33
21433;BME280;18592;49.708;10.900;2023-03-19T08:06:32;98622.03;;;12.58;47.51
21433;BME280;18592;49.708;10.900;2023-03-19T08:08:33;98611.66;;;12.60;47.39
21433;BME280;18592;49.708;10.900;2023-03-19T08:10:35;98623.19;;;12.62;47.56
21433;BME280;18592;49.708;10.900;2023-03-19T08:12:39;98622.91;;;12.63;47.38
21433;BME280;18592;49.708;10.900;2023-03-19T08:14:41;98621.81;;;12.64;47.54
21433;BME280;18592;49.708;10.900;2023-03-19T08:16:43;98627.84;;;12.66;47.48
21433;BME280;18592;49.708;10.900;2023-03-19T08:18:44;98623.78;;;12.69;47.63
21433;BME280;18592;49.708;10.900;2023-03-19T08:20:49;98624.88;;;12.73;47.67
21433;BME280;18592;49.708;10.900;2023-03-19T08:22:54;98628.72;;;12.72;47.63
21433;BME280;18592;49.708;10.900;2023-03-19T08:24:56;98627.63;;;12.73;47.65
21433;BME280;18592;49.708;10.900;2023-03-19T08:26:58;98629.84;;;12.76;47.47
21433;BME280;18592;49.708;10.900;2023-03-19T08:28:59;98637.75;;;12.77;47.40
21433;BME280;18592;49.708;10.900;2023-03-19T08:31:09;98646.56;;;12.80;47.58
21433;BME280;18592;49.708;10.900;2023-03-19T08:33:11;98646.28;;;12.81;47.63
21433;BME280;18592;49.708;10.900;2023-03-19T08:35:13;98647.94;;;12.82;47.56
21433;BME280;18592;49.708;10.900;2023-03-19T08:37:14;98646.84;;;12.83;47.57
21433;BME280;18592;49.708;10.900;2023-03-19T08:39:16;98647.38;;;12.85;47.62
21433;BME280;18592;49.708;10.900;2023-03-19T08:41:17;98653.44;;;12.87;47.68
21433;BME280;18592;49.708;10.900;2023-03-19T08:43:19;98653.44;;;12.87;47.81
21433;BME280;18592;49.708;10.900;2023-03-19T08:45:26;98655.06;;;12.88;47.72
21433;BME280;18592;49.708;10.900;2023-03-19T08:47:28;98657.56;;;12.90;47.65
21433;BME280;18592;49.708;10.900;2023-03-19T08:49:30;98654.56;;;12.91;47.59
21433;BME280;18592;49.708;10.900;2023-03-19T08:51:34;98666.06;;;12.93;47.45
21433;BME280;18592;49.708;10.900;2023-03-19T08:53:37;98665.53;;;12.96;47.42
21433;BME280;18592;49.708;10.900;2023-03-19T08:55:38;98666.34;;;12.97;47.42
21433;BME280;18592;49.708;10.900;2023-03-19T08:57:40;98670.47;;;12.99;47.53
21433;BME280;18592;49.708;10.900;2023-03-19T08:59:42;98668.81;;;12.98;48.14
21433;BME280;18592;49.708;10.900;2023-03-19T09:01:49;98668.84;;;13.03;47.83
21433;BME280;18592;49.708;10.900;2023-03-19T09:03:51;98674.91;;;13.05;48.20
21433;BME280;18592;49.708;10.900;2023-03-19T09:05:52;98675.72;;;13.06;47.80
21433;BME280;18592;49.708;10.900;2023-03-19T09:07:54;98683.44;;;13.09;47.81
21433;BME280;18592;49.708;10.900;2023-03-19T09:09:55;98672.25;;;13.10;47.97
21433;BME280;18592;49.708;10.900;2023-03-19T09:11:57;98680.72;;;13.14;47.94
21433;BME280;18592;49.708;10.900;2023-03-19T09:13:59;98684.84;;;13.16;47.81
21433;BME280;18592;49.708;10.900;2023-03-19T09:16:00;98682.94;;;13.17;47.91
21433;BME280;18592;49.708;10.900;2023-03-19T09:18:02;98683.78;;;13.17;48.05
21433;BME280;18592;49.708;10.900;2023-03-19T09:20:04;98684.31;;;13.19;48.07
21433;BME280;18592;49.708;10.900;2023-03-19T09:22:07;98690.34;;;13.21;47.86
21433;BME280;18592;49.708;10.900;2023-03-19T09:24:09;98692.56;;;13.24;47.99
21433;BME280;18592;49.708;10.900;2023-03-19T09:26:11;98691.50;;;13.25;48.02
21433;BME280;18592;49.708;10.900;2023-03-19T09:28:15;98690.69;;;13.30;48.42
21433;BME280;18592;49.708;10.900;2023-03-19T09:30:17;98688.50;;;13.32;48.24
21433;BME280;18592;49.708;10.900;2023-03-19T09:32:19;98688.78;;;13.30;48.15
21433;BME280;18592;49.708;10.900;2023-03-19T09:34:21;98693.19;;;13.36;48.17
21433;BME280;18592;49.708;10.900;2023-03-19T09:36:23;98693.72;;;13.38;48.38
21433;BME280;18592;49.708;10.900;2023-03-19T09:38:25;98697.03;;;13.41;48.15
21433;BME280;18592;49.708;10.900;2023-03-19T09:42:47;98702.28;;;13.47;48.14
21433;BME280;18592;49.708;10.900;2023-03-19T09:44:51;98703.09;;;13.48;48.27
21433;BME280;18592;49.708;10.900;2023-03-19T09:49:25;98702.03;;;13.54;47.99
21433;BME280;18592;49.708;10.900;2023-03-19T09:51:36;98704.78;;;13.59;48.14
21433;BME280;18592;49.708;10.900;2023-03-19T09:53:56;98697.41;;;13.59;48.37
21433;BME280;18592;49.708;10.900;2023-03-19T09:56:01;98696.31;;;13.60;48.33
21433;BME280;18592;49.708;10.900;2023-03-19T09:58:16;98697.97;;;13.66;47.87
21433;BME280;18592;49.708;10.900;2023-03-19T10:00:29;98697.75;;;13.73;47.96
21433;BME280;18592;49.708;10.900;2023-03-19T10:02:42;98699.38;;;13.74;48.13
21433;BME280;18592;49.708;10.900;2023-03-19T10:05:09;98696.94;;;13.77;48.20
21433;BME280;18592;49.708;10.900;2023-03-19T10:07:28;98697.78;;;13.83;49.15
21433;BME280;18592;49.708;10.900;2023-03-19T10:10:02;98695.59;;;13.90;48.28
21433;BME280;18592;49.708;10.900;2023-03-19T10:14:52;98690.97;;;13.95;48.48
21433;BME280;18592;49.708;10.900;2023-03-19T10:17:02;98697.84;;;13.98;48.45
21433;BME280;18592;49.708;10.900;2023-03-19T10:19:12;98695.94;;;14.04;48.90
21433;BME280;18592;49.708;10.900;2023-03-19T10:21:44;98691.25;;;14.09;48.58
21433;BME280;18592;49.708;10.900;2023-03-19T10:26:11;98695.13;;;14.13;48.79
21433;BME280;18592;49.708;10.900;2023-03-19T10:28:17;98689.09;;;14.16;50.13
21433;BME280;18592;49.708;10.900;2023-03-19T10:30:21;98688.00;;;14.22;49.16
21433;BME280;18592;49.708;10.900;2023-03-19T10:32:37;98679.03;;;14.32;48.71
21433;BME280;18592;49.708;10.900;2023-03-19T10:34:48;98676.00;;;14.38;48.66
21433;BME280;18592;49.708;10.900;2023-03-19T10:37:13;98679.84;;;14.42;48.46
21433;BME280;18592;49.708;10.900;2023-03-19T10:39:20;98682.03;;;14.45;48.85
21433;BME280;18592;49.708;10.900;2023-03-19T10:43:39;98681.78;;;14.57;48.65
21433;BME280;18592;49.708;10.900;2023-03-19T10:45:42;98683.44;;;14.63;48.93
21433;BME280;18592;49.708;10.900;2023-03-19T10:47:43;98678.47;;;14.70;48.81
21433;BME280;18592;49.708;10.900;2023-03-19T10:49:45;98673.81;;;14.76;48.79
21433;BME280;18592;49.708;10.900;2023-03-19T10:51:47;98677.94;;;14.83;49.04
21433;BME280;18592;49.708;10.900;2023-03-19T10:53:51;98666.69;;;14.90;48.83
21433;BME280;18592;49.708;10.900;2023-03-19T10:56:04;98669.69;;;14.98;48.54
21433;BME280;18592;49.708;10.900;2023-03-19T10:58:18;98673.25;;;15.04;49.30
21433;BME280;18592;49.708;10.900;2023-03-19T11:00:25;98667.47;;;15.10;49.47
21433;BME280;18592;49.708;10.900;2023-03-19T11:02:29;98659.22;;;15.15;49.18
21433;BME280;18592;49.708;10.900;2023-03-19T11:04:32;98661.41;;;15.23;48.94
21433;BME280;18592;49.708;10.900;2023-03-19T11:06:35;98666.03;;;15.28;49.03